createdAt,value
2018-07-13T20:29:03.020Z,75.70
2018-07-13T20:29:34.160Z,76.40
2018-07-13T20:30:05.272Z,76.40
2018-07-13T20:30:36.400Z,76.40
2018-07-13T20:31:07.517Z,76.50
2018-07-13T20:31:38.868Z,76.90
2018-07-13T20:32:09.985Z,77.00
2018-07-13T20:32:41.182Z,77.10
2018-07-13T20:33:12.395Z,77.50
2018-07-13T20:33:43.543Z,77.60
2018-07-13T20:34:14.808Z,77.50
2018-07-13T20:34:45.988Z,77.50
2018-07-13T20:35:17.240Z,77.50
2018-07-13T20:35:48.554Z,77.50
2018-07-13T20:36:51.529Z,77.50
2018-07-13T20:37:22.680Z,77.50
2018-07-13T20:37:53.901Z,77.50
2018-07-13T20:38:25.014Z,77.50
2018-07-13T20:38:56.132Z,77.50
2018-07-13T20:39:59.008Z,77.80
2018-07-13T20:40:30.123Z,77.80
2018-07-13T20:41:01.380Z,77.90
2018-07-13T20:41:32.496Z,78.10
2018-07-13T20:42:03.850Z,78.20
2018-07-13T20:42:35.212Z,78.00
2018-07-13T20:43:06.315Z,78.10
2018-07-13T20:43:37.640Z,77.90
2018-07-13T20:44:40.523Z,78.20
2018-07-13T20:45:11.756Z,78.10
2018-07-13T20:45:43.397Z,78.00
2018-07-13T20:46:14.892Z,78.00
2018-07-13T20:46:46.069Z,78.10
2018-07-13T20:47:17.184Z,78.00
2018-07-13T20:48:51.712Z,78.60
2018-07-13T20:49:22.940Z,78.40
2018-07-13T20:49:54.227Z,78.40
2018-07-13T20:50:25.344Z,78.60
2018-07-13T20:50:56.544Z,78.60
2018-07-13T20:51:27.768Z,78.50
2018-07-13T20:51:58.915Z,78.40
2018-07-13T20:52:30.195Z,78.50
2018-07-13T20:53:01.467Z,78.50
2018-07-13T20:53:32.684Z,79.40
2018-07-13T20:55:06.878Z,78.80
2018-07-13T20:55:37.996Z,78.60
2018-07-13T20:56:09.115Z,78.50
2018-07-13T20:56:40.560Z,78.60
2018-07-13T20:57:11.959Z,78.70
2018-07-13T20:57:43.072Z,78.60
2018-07-13T20:58:14.305Z,78.70
2018-07-13T20:58:45.526Z,78.60
2018-07-13T20:59:16.708Z,78.50
2018-07-13T20:59:48.100Z,78.70
2018-07-13T21:00:19.266Z,78.50
2018-07-13T21:00:50.429Z,78.60
2018-07-13T21:01:21.687Z,78.70
2018-07-13T21:01:52.801Z,78.50
2018-07-13T21:02:55.932Z,79.60
2018-07-13T21:03:27.023Z,78.50
2018-07-13T21:03:58.140Z,78.50
2018-07-13T21:04:29.257Z,78.50
2018-07-13T21:05:00.517Z,78.80
2018-07-13T21:05:31.748Z,78.50
2018-07-13T21:06:02.993Z,78.50
2018-07-13T21:06:34.112Z,78.50
2018-07-13T21:07:05.220Z,78.60
2018-07-13T21:07:36.332Z,78.50
2018-07-13T21:08:07.449Z,78.40
2018-07-13T21:08:38.568Z,78.50
2018-07-13T21:09:09.689Z,78.50
2018-07-13T21:09:40.801Z,78.70
2018-07-13T21:10:11.998Z,78.50
2018-07-13T21:10:43.081Z,78.40
2018-07-13T21:11:14.193Z,78.50
2018-07-13T21:11:45.552Z,78.50
2018-07-13T21:12:16.740Z,78.50
2018-07-13T21:12:47.895Z,78.60
2018-07-13T21:13:19.102Z,78.60
2018-07-13T21:13:50.248Z,78.70
2018-07-13T21:14:21.560Z,78.50
2018-07-13T21:15:24.360Z,78.70
2018-07-13T21:15:55.565Z,78.70
2018-07-13T21:16:26.718Z,78.60
2018-07-13T21:16:57.913Z,78.70
2018-07-13T21:17:29.164Z,78.70
2018-07-13T21:18:00.320Z,79.40
2018-07-13T21:18:31.673Z,78.80
2018-07-13T21:19:02.833Z,78.70
2018-07-13T21:19:33.986Z,78.60
2018-07-13T21:20:05.315Z,78.80
2018-07-13T21:20:36.452Z,78.70
2018-07-13T21:21:07.561Z,78.70
2018-07-13T21:21:38.675Z,78.70
2018-07-13T21:22:09.790Z,78.80
2018-07-13T21:22:40.909Z,78.70
2018-07-13T21:23:12.016Z,78.70
2018-07-13T21:23:43.127Z,78.60
2018-07-13T21:24:14.241Z,78.60
2018-07-13T21:24:45.388Z,78.80
2018-07-13T21:25:16.491Z,79.50
2018-07-13T21:25:47.630Z,78.60
2018-07-13T21:26:18.741Z,78.60
2018-07-13T21:26:49.938Z,78.50
2018-07-13T21:27:21.040Z,78.50
2018-07-13T21:27:52.121Z,78.50
2018-07-13T21:28:23.240Z,78.50
2018-07-13T21:28:54.349Z,78.60
2018-07-13T21:29:25.490Z,78.70
2018-07-13T21:29:56.590Z,78.80
2018-07-13T21:30:27.721Z,78.70
2018-07-13T21:30:58.851Z,78.70
2018-07-13T21:31:29.969Z,78.80
2018-07-13T21:32:01.080Z,78.70
2018-07-13T21:32:32.187Z,78.80
2018-07-13T21:33:03.365Z,79.60
2018-07-13T21:33:34.481Z,78.80
2018-07-13T21:34:05.588Z,78.90
2018-07-13T21:34:36.696Z,78.80
2018-07-13T21:35:07.837Z,78.80
2018-07-13T21:35:38.933Z,78.80
2018-07-13T21:36:10.076Z,78.80
2018-07-13T21:36:41.188Z,78.90
2018-07-13T21:37:12.299Z,78.90
2018-07-13T21:37:43.436Z,78.70
2018-07-13T21:38:14.560Z,78.80
2018-07-13T21:38:45.724Z,78.80
2018-07-13T21:39:16.839Z,78.80
2018-07-13T21:39:47.943Z,78.70
2018-07-13T21:40:19.054Z,78.70
2018-07-13T21:40:50.160Z,78.70
2018-07-13T21:41:21.551Z,78.70
2018-07-13T21:41:52.656Z,78.70
2018-07-13T21:42:55.681Z,79.10
2018-07-13T21:43:27.486Z,79.80
2018-07-13T21:43:58.660Z,78.90
2018-07-13T21:44:29.767Z,78.80
2018-07-13T21:45:01.111Z,78.70
2018-07-13T21:45:32.344Z,78.70
2018-07-13T21:46:03.484Z,78.70
2018-07-13T21:46:34.775Z,78.90
2018-07-13T21:47:06.052Z,78.80
2018-07-13T21:47:37.167Z,78.80
2018-07-13T21:48:08.385Z,79.00
2018-07-13T21:48:39.500Z,78.80
2018-07-13T21:49:10.612Z,78.70
2018-07-13T21:50:13.235Z,79.20
2018-07-13T21:50:44.349Z,79.10
2018-07-13T21:51:15.544Z,79.20
2018-07-13T21:51:46.788Z,79.20
2018-07-13T21:52:17.970Z,80.00
2018-07-13T21:52:49.664Z,79.20
2018-07-13T21:53:20.864Z,79.20
2018-07-13T21:53:52.044Z,79.20
2018-07-13T21:54:23.266Z,79.10
2018-07-13T21:54:54.591Z,79.20
2018-07-13T21:55:25.897Z,79.00
2018-07-13T21:55:57.771Z,78.90
2018-07-13T21:56:29.375Z,79.00
2018-07-13T21:57:00.574Z,78.90
2018-07-13T21:57:31.831Z,79.00
2018-07-13T21:58:03.008Z,79.00
2018-07-13T21:58:34.116Z,79.30
2018-07-13T21:59:05.219Z,79.50
2018-07-13T21:59:36.328Z,79.40
2018-07-13T22:00:07.441Z,79.30
2018-07-13T22:00:38.549Z,79.20
2018-07-13T22:01:09.685Z,79.20
2018-07-13T22:02:12.352Z,79.20
2018-07-13T22:02:43.460Z,79.20
2018-07-13T22:03:14.586Z,79.10
2018-07-13T22:03:45.697Z,79.10
2018-07-13T22:04:16.817Z,79.10
2018-07-13T22:04:48.005Z,79.00
2018-07-13T22:05:19.120Z,79.00
2018-07-13T22:06:21.741Z,79.00
2018-07-13T22:06:52.848Z,79.00
2018-07-13T22:07:24.044Z,79.00
2018-07-13T22:07:55.152Z,79.00
2018-07-13T22:08:26.287Z,79.80
2018-07-13T22:08:57.560Z,79.00
2018-07-13T22:09:28.674Z,79.20
2018-07-13T22:09:59.784Z,79.30
2018-07-13T22:10:30.893Z,79.30
2018-07-13T22:11:02.005Z,79.30
2018-07-13T22:11:33.145Z,79.10
2018-07-13T22:12:04.260Z,78.80
2018-07-13T22:12:35.372Z,78.80
2018-07-13T22:13:06.602Z,78.80
2018-07-13T22:13:37.717Z,78.90
2018-07-13T22:14:08.833Z,78.80
2018-07-13T22:14:39.950Z,78.90
2018-07-13T22:15:11.056Z,78.90
2018-07-13T22:15:42.191Z,79.00
2018-07-13T22:16:13.309Z,79.10
2018-07-13T22:16:44.443Z,79.20
2018-07-13T22:17:15.553Z,79.40
2018-07-13T22:17:46.669Z,79.20
2018-07-13T22:18:17.789Z,79.20
2018-07-13T22:18:48.913Z,79.20
2018-07-13T22:19:20.020Z,79.00
2018-07-13T22:19:51.129Z,78.80
2018-07-13T22:20:22.232Z,79.50
2018-07-13T22:20:53.368Z,78.80
2018-07-13T22:21:24.534Z,78.80
2018-07-13T22:21:55.644Z,78.70
2018-07-13T22:22:26.777Z,78.80
2018-07-13T22:22:57.893Z,78.80
2018-07-13T22:23:29.003Z,78.80
2018-07-13T22:24:00.225Z,78.80
2018-07-13T22:24:31.341Z,78.80
2018-07-13T22:25:02.457Z,78.70
2018-07-13T22:25:33.688Z,78.70
2018-07-13T22:26:04.798Z,78.80
2018-07-13T22:26:35.959Z,78.80
2018-07-13T22:27:07.064Z,78.80
2018-07-13T22:27:38.172Z,78.80
2018-07-13T22:28:09.280Z,78.80
2018-07-13T22:28:40.389Z,78.80
2018-07-13T22:29:11.504Z,78.80
2018-07-13T22:29:42.620Z,78.80
2018-07-13T22:30:13.728Z,78.80
2018-07-13T22:30:44.841Z,78.80
2018-07-13T22:31:15.947Z,78.80
2018-07-13T22:31:47.085Z,78.80
2018-07-13T22:32:18.193Z,78.80
2018-07-13T22:32:49.308Z,78.80
2018-07-13T22:33:52.316Z,78.80
2018-07-13T22:34:23.423Z,78.80
2018-07-13T22:34:54.532Z,78.80
2018-07-13T22:35:57.184Z,78.80
2018-07-13T22:36:28.400Z,78.80
2018-07-13T22:36:59.509Z,78.70
2018-07-13T22:37:30.618Z,78.70
2018-07-13T22:38:01.729Z,78.70
2018-07-13T22:38:32.839Z,78.70
2018-07-13T22:39:03.944Z,78.70
2018-07-13T22:39:35.052Z,78.70
2018-07-13T22:40:06.164Z,78.70
2018-07-13T22:40:37.269Z,78.70
2018-07-13T22:41:39.944Z,78.70
2018-07-13T22:42:42.565Z,78.70
2018-07-13T22:43:13.675Z,78.60
2018-07-13T22:43:44.788Z,78.50
2018-07-13T22:44:15.899Z,78.50
2018-07-13T22:44:47.008Z,78.50
2018-07-13T22:45:18.116Z,78.50
2018-07-13T22:45:49.224Z,78.50
2018-07-13T22:46:20.333Z,78.50
2018-07-13T22:46:51.463Z,78.50
2018-07-13T22:47:22.573Z,78.50
2018-07-13T22:48:25.195Z,78.50
2018-07-13T22:48:56.373Z,78.50
2018-07-13T22:49:27.484Z,78.50
2018-07-13T22:49:58.592Z,78.50
2018-07-13T22:50:29.704Z,78.50
2018-07-13T22:51:00.856Z,78.50
2018-07-13T22:51:31.952Z,78.50
2018-07-13T22:52:03.089Z,78.40
2018-07-13T22:52:34.209Z,78.50
2018-07-13T22:53:05.325Z,79.20
2018-07-13T22:53:36.436Z,78.50
2018-07-13T22:54:07.547Z,78.40
2018-07-13T22:54:38.657Z,78.40
2018-07-13T22:55:09.817Z,78.40
2018-07-13T22:55:40.896Z,78.40
2018-07-13T22:56:12.012Z,78.40
2018-07-13T22:56:43.152Z,78.40
2018-07-13T22:57:14.264Z,78.40
2018-07-13T22:57:45.371Z,78.40
2018-07-13T22:58:16.488Z,78.30
2018-07-13T22:58:47.592Z,78.30
2018-07-13T22:59:18.704Z,78.30
2018-07-13T22:59:49.860Z,78.20
2018-07-13T23:00:20.952Z,78.20
2018-07-13T23:00:52.065Z,79.00
2018-07-13T23:01:23.181Z,78.20
2018-07-13T23:01:54.312Z,78.20
2018-07-13T23:02:25.432Z,78.20
2018-07-13T23:02:56.540Z,78.20
2018-07-13T23:03:27.644Z,78.20
2018-07-13T23:03:58.748Z,78.20
2018-07-13T23:04:29.855Z,78.20
2018-07-13T23:05:00.971Z,78.20
2018-07-13T23:06:03.628Z,78.20
2018-07-13T23:06:34.737Z,78.20
2018-07-13T23:07:05.879Z,78.20
2018-07-13T23:07:36.992Z,78.10
2018-07-13T23:08:08.096Z,78.10
2018-07-13T23:08:39.209Z,78.10
2018-07-13T23:09:10.336Z,78.10
2018-07-13T23:09:41.449Z,78.10
2018-07-13T23:10:44.072Z,78.10
2018-07-13T23:11:15.185Z,78.00
2018-07-13T23:11:46.371Z,78.00
2018-07-13T23:12:17.477Z,78.00
2018-07-13T23:12:48.586Z,78.00
2018-07-13T23:13:19.703Z,78.00
2018-07-13T23:13:50.825Z,78.00
2018-07-13T23:14:21.940Z,78.00
2018-07-13T23:14:53.053Z,78.00
2018-07-13T23:15:24.164Z,78.00
2018-07-13T23:15:55.269Z,78.00
2018-07-13T23:16:26.377Z,77.90
2018-07-13T23:16:57.516Z,77.90
2018-07-13T23:17:28.631Z,77.90
2018-07-13T23:17:59.845Z,77.80
2018-07-13T23:18:30.957Z,77.80
2018-07-13T23:19:33.605Z,77.80
2018-07-13T23:20:04.712Z,77.80
2018-07-13T23:20:35.821Z,77.80
2018-07-13T23:21:06.980Z,77.80
2018-07-13T23:21:38.056Z,77.80
2018-07-13T23:22:09.192Z,77.80
2018-07-13T23:22:40.300Z,77.80
2018-07-13T23:23:11.417Z,77.80
2018-07-13T23:23:42.537Z,77.80
2018-07-13T23:24:13.670Z,77.70
2018-07-13T23:24:44.784Z,78.30
2018-07-13T23:25:15.904Z,77.70
2018-07-13T23:25:47.016Z,77.70
2018-07-13T23:26:18.124Z,77.70
2018-07-13T23:26:49.236Z,77.70
2018-07-13T23:27:20.371Z,77.70
2018-07-13T23:28:23.032Z,77.70
2018-07-13T23:28:54.157Z,77.70
2018-07-13T23:29:25.269Z,77.70
2018-07-13T23:29:56.384Z,78.00
2018-07-13T23:30:27.492Z,77.70
2018-07-13T23:30:58.604Z,77.70
2018-07-13T23:31:29.742Z,77.70
2018-07-13T23:32:00.953Z,77.70
2018-07-13T23:32:32.060Z,77.70
2018-07-13T23:33:03.164Z,77.70
2018-07-13T23:33:34.269Z,77.70
2018-07-13T23:34:05.389Z,77.70
2018-07-13T23:34:36.505Z,77.70
2018-07-13T23:35:07.617Z,77.70
2018-07-13T23:35:38.731Z,77.70
2018-07-13T23:36:09.844Z,77.70
2018-07-13T23:36:40.956Z,77.70
2018-07-13T23:37:12.099Z,77.70
2018-07-13T23:37:43.217Z,77.60
2018-07-13T23:38:14.324Z,77.60
2018-07-13T23:38:45.437Z,77.60
2018-07-13T23:39:16.564Z,77.60
2018-07-13T23:39:47.677Z,77.60
2018-07-13T23:40:18.787Z,77.60
2018-07-13T23:40:49.899Z,77.60
2018-07-13T23:41:21.080Z,77.60
2018-07-13T23:41:52.201Z,77.60
2018-07-13T23:42:23.344Z,77.60
2018-07-13T23:42:54.461Z,77.60
2018-07-13T23:43:25.593Z,77.60
2018-07-13T23:43:56.705Z,77.60
2018-07-13T23:44:27.827Z,77.60
2018-07-13T23:44:58.937Z,77.60
2018-07-13T23:45:30.049Z,77.50
2018-07-13T23:46:01.166Z,77.50
2018-07-13T23:46:32.382Z,77.50
2018-07-13T23:47:03.874Z,77.50
2018-07-13T23:47:35.057Z,77.50
2018-07-13T23:48:06.171Z,77.50
2018-07-13T23:48:37.276Z,77.50
2018-07-13T23:49:08.388Z,77.50
2018-07-13T23:49:39.500Z,77.50
2018-07-13T23:50:10.615Z,77.50
2018-07-13T23:50:41.719Z,77.50
2018-07-13T23:51:12.826Z,77.50
2018-07-13T23:51:43.935Z,77.50
2018-07-13T23:52:15.079Z,77.50
2018-07-13T23:52:46.188Z,77.50
2018-07-13T23:53:17.296Z,77.50
2018-07-13T23:53:48.455Z,77.50
2018-07-13T23:54:19.540Z,77.50
2018-07-13T23:54:50.665Z,77.50
2018-07-13T23:55:21.776Z,77.50
2018-07-13T23:55:52.888Z,77.50
2018-07-13T23:56:24.000Z,77.50
2018-07-13T23:56:55.108Z,77.50
2018-07-13T23:57:26.608Z,77.50
2018-07-13T23:57:57.761Z,77.50
2018-07-13T23:58:28.867Z,77.50
2018-07-13T23:58:59.979Z,77.50
2018-07-13T23:59:31.084Z,77.40
